Aviation Digital Data Service (ADDS)

Output produced by METARs form (1306 UTC 23 July 2016)
found at http://aviationweather.gov/adds/metars/
 
KBVI 231132Z 2312/2412 00000KT 5SM BR SCT045 
     FM231300 29006KT P6SM SCT045 
     FM240200 01004KT P6SM FEW250